createdAt,value
2023-02-22T00:00:43.526Z,22.80
2023-02-22T00:03:15.736Z,23.17
2023-02-22T00:05:47.272Z,22.58
2023-02-22T00:08:16.706Z,24.42
2023-02-22T00:10:44.923Z,21.63
2023-02-22T00:13:14.537Z,22.08
2023-02-22T00:15:41.820Z,23.83
2023-02-22T00:18:17.603Z,23.63
2023-02-22T00:20:45.826Z,22.98
2023-02-22T00:23:19.010Z,21.48
2023-02-22T00:25:47.822Z,23.88
2023-02-22T00:28:17.043Z,23.25
2023-02-22T00:30:44.686Z,23.83
2023-02-22T00:33:13.911Z,22.25
2023-02-22T00:35:41.942Z,22.65
2023-02-22T00:38:09.219Z,25.52
2023-02-22T00:40:36.633Z,23.60
2023-02-22T00:43:06.142Z,22.70
2023-02-22T00:45:36.327Z,24.50
2023-02-22T00:48:05.799Z,23.67
2023-02-22T00:50:33.807Z,23.83
2023-02-22T00:53:03.770Z,24.23
2023-02-22T00:55:35.645Z,25.23
2023-02-22T00:58:04.375Z,23.73
2023-02-22T01:00:37.613Z,26.20
2023-02-22T01:03:06.890Z,26.60
2023-02-22T01:05:34.785Z,27.08
2023-02-22T01:08:02.997Z,29.35
2023-02-22T01:10:31.548Z,26.38
2023-02-22T01:13:00.583Z,26.00
2023-02-22T01:15:30.800Z,26.10
2023-02-22T01:17:59.952Z,26.67
2023-02-22T01:20:29.143Z,28.27
2023-02-22T01:22:58.732Z,27.02
2023-02-22T01:25:30.898Z,27.45
2023-02-22T01:28:00.511Z,29.38
2023-02-22T01:30:31.073Z,28.25
2023-02-22T01:32:58.764Z,27.45
2023-02-22T01:35:29.547Z,27.65
2023-02-22T01:37:58.446Z,28.75
2023-02-22T01:40:33.340Z,26.77
2023-02-22T01:43:05.164Z,28.77
2023-02-22T01:45:35.201Z,28.13
2023-02-22T01:48:04.718Z,26.45
2023-02-22T01:50:34.525Z,27.85
2023-02-22T01:53:02.781Z,29.48
2023-02-22T01:55:31.393Z,27.38
2023-02-22T01:57:58.835Z,28.75
2023-02-22T02:00:27.903Z,28.38
2023-02-22T02:03:02.194Z,28.88
2023-02-22T02:05:32.250Z,28.45
2023-02-22T02:08:05.917Z,27.35
2023-02-22T02:10:34.704Z,28.60
2023-02-22T02:13:04.068Z,29.15
2023-02-22T02:15:34.393Z,27.55
2023-02-22T02:18:10.945Z,27.85
2023-02-22T02:21:03.203Z,28.45
2023-02-22T02:23:30.438Z,28.17
2023-02-22T02:26:35.035Z,29.73
2023-02-22T02:29:36.406Z,27.63
2023-02-22T02:32:09.367Z,27.67
2023-02-22T02:35:15.326Z,27.73
2023-02-22T02:37:57.785Z,27.70
2023-02-22T02:40:29.436Z,28.27
2023-02-22T02:43:26.444Z,25.70
2023-02-22T02:46:01.525Z,28.23
2023-02-22T02:48:30.917Z,27.05
2023-02-22T02:51:01.236Z,30.08
2023-02-22T02:53:35.164Z,27.88
2023-02-22T02:56:02.567Z,28.70
2023-02-22T02:58:30.091Z,28.20
2023-02-22T03:01:01.305Z,31.80
2023-02-22T03:03:43.671Z,28.17
2023-02-22T03:06:30.196Z,29.65
2023-02-22T03:09:14.052Z,27.42
2023-02-22T03:11:53.747Z,30.75
2023-02-22T03:14:38.348Z,30.05
2023-02-22T03:17:32.110Z,28.42
2023-02-22T03:20:31.803Z,29.48
2023-02-22T03:23:24.894Z,29.52
2023-02-22T03:25:58.431Z,30.98
2023-02-22T03:28:28.016Z,30.40
2023-02-22T03:31:05.893Z,31.95
2023-02-22T03:33:56.492Z,31.42
2023-02-22T03:36:30.865Z,31.45
2023-02-22T03:39:01.229Z,29.70
2023-02-22T03:41:31.078Z,30.83
2023-02-22T03:44:07.216Z,31.30
2023-02-22T03:46:38.334Z,31.77
2023-02-22T03:49:12.853Z,29.83
2023-02-22T03:51:40.796Z,31.25
2023-02-22T03:54:16.356Z,30.95
2023-02-22T03:57:10.000Z,32.10
2023-02-22T03:59:37.731Z,32.00
2023-02-22T04:02:05.007Z,34.00
2023-02-22T04:04:32.409Z,34.33
2023-02-22T04:07:00.825Z,33.75
2023-02-22T04:09:28.335Z,32.35
2023-02-22T04:11:55.649Z,32.25
2023-02-22T04:14:23.897Z,34.75
2023-02-22T04:16:51.532Z,36.15
2023-02-22T04:19:19.172Z,33.28
2023-02-22T04:21:46.776Z,35.45
2023-02-22T04:24:14.945Z,35.28
2023-02-22T04:26:42.307Z,35.13
2023-02-22T04:29:09.751Z,35.08
2023-02-22T04:31:37.123Z,34.83
2023-02-22T04:34:04.806Z,33.80
2023-02-22T04:36:32.205Z,33.35
2023-02-22T04:39:00.653Z,33.80
2023-02-22T04:41:28.474Z,34.28
2023-02-22T04:43:55.766Z,32.10
2023-02-22T04:46:23.446Z,34.15
2023-02-22T04:48:50.784Z,31.60
2023-02-22T04:51:19.933Z,32.65
2023-02-22T04:53:47.410Z,34.03
2023-02-22T04:56:16.919Z,32.38
2023-02-22T04:58:44.356Z,32.58
2023-02-22T05:01:11.806Z,33.95
2023-02-22T05:03:39.262Z,33.83
2023-02-22T05:06:07.464Z,33.22
2023-02-22T05:08:35.011Z,32.75
2023-02-22T05:11:02.515Z,31.77
2023-02-22T05:13:30.016Z,33.92
2023-02-22T05:15:57.407Z,32.90
2023-02-22T05:18:24.700Z,33.97
2023-02-22T05:20:52.046Z,34.22
2023-02-22T05:23:19.309Z,31.92
2023-02-22T05:25:46.663Z,33.55
2023-02-22T05:28:15.237Z,33.33
2023-02-22T05:30:42.735Z,33.63
2023-02-22T05:33:10.909Z,32.67
2023-02-22T05:35:38.356Z,32.83
2023-02-22T05:38:06.213Z,34.03
2023-02-22T05:40:34.110Z,34.72
2023-02-22T05:43:03.022Z,34.65
2023-02-22T05:45:30.589Z,34.33
2023-02-22T05:47:58.321Z,33.08
2023-02-22T05:50:26.349Z,35.22
2023-02-22T05:52:54.843Z,33.70
2023-02-22T05:55:24.153Z,35.15
2023-02-22T05:57:52.438Z,34.47
2023-02-22T06:00:27.329Z,36.17
2023-02-22T06:03:03.599Z,33.47
2023-02-22T06:05:31.589Z,35.88
2023-02-22T06:07:59.447Z,37.30
2023-02-22T06:10:27.364Z,36.80
2023-02-22T06:12:55.141Z,35.58
2023-02-22T06:15:24.082Z,34.88
2023-02-22T06:17:52.493Z,38.15
2023-02-22T06:20:22.975Z,36.70
2023-02-22T06:22:51.813Z,35.58
2023-02-22T06:25:22.242Z,35.97
2023-02-22T06:27:49.854Z,37.60
2023-02-22T06:30:19.954Z,37.70
2023-02-22T06:32:47.475Z,36.95
2023-02-22T06:35:16.362Z,36.55
2023-02-22T06:37:43.724Z,38.95
2023-02-22T06:40:12.232Z,37.53
2023-02-22T06:42:39.942Z,41.00
2023-02-22T06:45:08.542Z,37.35
2023-02-22T06:47:41.863Z,37.58
2023-02-22T06:50:28.945Z,35.97
2023-02-22T06:52:57.348Z,39.72
2023-02-22T06:55:28.197Z,37.75
2023-02-22T06:57:55.887Z,39.70
2023-02-22T07:00:25.299Z,38.58
2023-02-22T07:02:56.449Z,38.75
2023-02-22T07:05:25.984Z,40.03
2023-02-22T07:07:56.472Z,36.97
2023-02-22T07:10:27.637Z,38.78
2023-02-22T07:12:55.604Z,41.42
2023-02-22T07:15:25.231Z,38.72
2023-02-22T07:17:52.875Z,39.88
2023-02-22T07:20:21.133Z,39.33
2023-02-22T07:22:50.799Z,42.00
2023-02-22T07:25:19.218Z,39.10
2023-02-22T07:27:46.805Z,42.17
2023-02-22T07:30:34.309Z,42.45
2023-02-22T07:33:04.859Z,39.22
2023-02-22T07:35:36.775Z,38.17
2023-02-22T07:38:06.239Z,36.95
2023-02-22T07:40:33.890Z,37.88
2023-02-22T07:43:05.923Z,37.78
2023-02-22T07:45:35.590Z,38.03
2023-02-22T07:48:05.217Z,37.08
2023-02-22T07:50:34.759Z,40.22
2023-02-22T07:53:07.795Z,35.83
2023-02-22T07:55:35.513Z,36.67
2023-02-22T07:58:06.236Z,37.03
2023-02-22T08:00:39.348Z,35.78
2023-02-22T08:03:12.593Z,36.55
2023-02-22T08:05:41.863Z,34.42
2023-02-22T08:08:09.525Z,36.50
2023-02-22T08:10:36.989Z,34.97
2023-02-22T08:13:05.237Z,34.85
2023-02-22T08:15:35.530Z,33.50
2023-02-22T08:18:04.663Z,36.72
2023-02-22T08:20:32.228Z,30.67
2023-02-22T08:22:59.514Z,34.00
2023-02-22T08:25:28.781Z,32.63
2023-02-22T08:28:01.488Z,31.88
2023-02-22T08:30:30.971Z,34.33
2023-02-22T08:32:59.686Z,31.60
2023-02-22T08:35:27.721Z,30.23
2023-02-22T08:38:02.693Z,29.65
2023-02-22T08:40:32.994Z,31.10
2023-02-22T08:43:01.798Z,28.88
2023-02-22T08:45:42.274Z,27.50
2023-02-22T08:48:09.628Z,30.25
2023-02-22T08:50:38.231Z,28.80
2023-02-22T08:53:06.080Z,27.30
2023-02-22T08:55:36.021Z,28.17
2023-02-22T08:58:05.996Z,28.08
2023-02-22T09:00:34.244Z,24.80
2023-02-22T09:03:02.770Z,24.00
2023-02-22T09:05:31.540Z,24.75
2023-02-22T09:07:59.917Z,23.80
2023-02-22T09:10:30.309Z,23.33
2023-02-22T09:13:00.956Z,23.75
2023-02-22T09:15:29.293Z,21.30
2023-02-22T09:17:56.835Z,23.45
2023-02-22T09:20:31.879Z,21.73
2023-02-22T09:23:00.407Z,21.52
2023-02-22T09:25:27.782Z,20.58
2023-02-22T09:27:56.936Z,20.05
2023-02-22T09:30:35.732Z,19.42
2023-02-22T09:33:19.684Z,18.33
2023-02-22T09:35:50.041Z,18.83
2023-02-22T09:38:22.763Z,17.80
2023-02-22T09:41:20.924Z,16.10
2023-02-22T09:44:27.810Z,17.50
2023-02-22T09:46:56.353Z,18.63
2023-02-22T09:49:33.724Z,16.20
2023-02-22T09:52:18.935Z,16.55
2023-02-22T09:54:54.679Z,15.70
2023-02-22T09:57:35.348Z,17.08
2023-02-22T10:00:16.177Z,15.38
2023-02-22T10:03:08.338Z,16.92
2023-02-22T10:05:42.920Z,17.15
2023-02-22T10:08:16.600Z,17.30
2023-02-22T10:10:46.091Z,18.08
2023-02-22T10:13:29.326Z,17.00
2023-02-22T10:16:02.739Z,16.50
2023-02-22T10:18:42.541Z,18.83
2023-02-22T10:21:29.789Z,18.10
2023-02-22T10:24:20.944Z,18.10
2023-02-22T10:26:48.609Z,19.27
2023-02-22T10:29:35.365Z,20.88
2023-02-22T10:32:05.159Z,19.10
2023-02-22T10:34:48.796Z,17.83
2023-02-22T10:37:29.256Z,19.77
2023-02-22T10:40:17.467Z,18.45
2023-02-22T10:42:45.243Z,20.20
2023-02-22T10:45:32.644Z,19.05
2023-02-22T10:48:26.284Z,18.38
2023-02-22T10:51:02.267Z,19.65
2023-02-22T10:53:31.106Z,18.85
2023-02-22T10:56:16.904Z,18.25
2023-02-22T10:59:02.412Z,18.27
2023-02-22T11:01:32.664Z,19.25
2023-02-22T11:04:16.233Z,18.77
2023-02-22T11:06:46.208Z,19.77
2023-02-22T11:09:24.843Z,22.88
2023-02-22T11:12:16.603Z,18.73
2023-02-22T11:14:43.910Z,18.80
2023-02-22T11:17:15.958Z,20.67
2023-02-22T11:19:49.400Z,19.38
2023-02-22T11:22:28.131Z,23.08
2023-02-22T11:25:02.491Z,19.83
2023-02-22T11:27:47.064Z,19.77
2023-02-22T11:30:32.982Z,20.17
2023-02-22T11:33:03.755Z,20.02
2023-02-22T11:35:32.905Z,21.73
2023-02-22T11:38:22.048Z,18.63
2023-02-22T11:41:14.798Z,19.63
2023-02-22T11:43:50.094Z,19.45
2023-02-22T11:46:22.558Z,19.52
2023-02-22T11:49:09.092Z,18.77
2023-02-22T11:51:45.535Z,19.42
2023-02-22T11:57:28.832Z,18.10
2023-02-22T12:00:33.554Z,15.85
2023-02-22T12:03:22.972Z,17.30
2023-02-22T12:06:02.419Z,15.85
2023-02-22T12:08:54.988Z,18.95
2023-02-22T12:11:55.025Z,17.73
2023-02-22T12:14:42.009Z,17.98
2023-02-22T12:19:52.301Z,16.40
2023-02-22T12:22:26.072Z,17.35
2023-02-22T12:25:21.595Z,14.32
2023-02-22T12:27:59.306Z,15.10
2023-02-22T12:30:39.474Z,16.33
2023-02-22T12:33:14.714Z,14.27
2023-02-22T12:35:54.754Z,14.07
2023-02-22T12:38:33.835Z,16.00
2023-02-22T12:41:24.821Z,15.48
2023-02-22T12:44:37.228Z,15.57
2023-02-22T12:47:14.120Z,15.13
2023-02-22T12:49:49.717Z,17.15
2023-02-22T12:52:28.734Z,15.73
2023-02-22T12:55:02.158Z,17.02
2023-02-22T12:58:08.305Z,18.05
2023-02-22T13:00:45.001Z,16.48
2023-02-22T13:03:15.644Z,19.25
2023-02-22T13:05:54.486Z,20.23
2023-02-22T13:08:34.161Z,17.88
2023-02-22T13:11:04.336Z,20.77
2023-02-22T13:13:54.725Z,20.95
2023-02-22T13:16:25.094Z,19.55
2023-02-22T13:18:55.469Z,18.77
2023-02-22T13:21:25.796Z,20.50
2023-02-22T13:24:18.386Z,19.88
2023-02-22T13:27:11.879Z,20.17
2023-02-22T13:29:55.529Z,19.10
2023-02-22T13:32:56.660Z,19.05
2023-02-22T13:35:45.202Z,19.67
2023-02-22T13:38:39.184Z,18.77
2023-02-22T13:41:12.376Z,17.35
2023-02-22T13:44:00.587Z,18.08
2023-02-22T13:46:53.488Z,18.20
2023-02-22T13:49:45.450Z,17.83
2023-02-22T13:52:18.626Z,16.70
2023-02-22T13:54:54.684Z,16.35
2023-02-22T13:57:49.883Z,18.83
2023-02-22T14:00:21.222Z,17.80
2023-02-22T14:03:08.545Z,16.52
2023-02-22T14:05:42.547Z,18.25
2023-02-22T14:08:19.166Z,17.17
2023-02-22T14:10:56.950Z,16.77
2023-02-22T14:13:29.216Z,17.13
2023-02-22T14:16:05.264Z,14.57
2023-02-22T14:18:41.227Z,15.80
2023-02-22T14:21:17.263Z,13.20
2023-02-22T14:23:45.625Z,14.68
2023-02-22T14:26:30.025Z,13.65
2023-02-22T14:29:02.813Z,12.77
2023-02-22T14:31:36.851Z,12.50
2023-02-22T14:34:07.138Z,13.23
2023-02-22T14:37:14.233Z,13.63
2023-02-22T14:39:51.151Z,13.30
2023-02-22T14:42:21.296Z,14.30
2023-02-22T14:44:48.935Z,14.15
2023-02-22T14:47:32.091Z,14.27
2023-02-22T14:50:25.258Z,13.60
2023-02-22T14:53:13.809Z,14.07
2023-02-22T14:55:50.951Z,14.68
2023-02-22T14:58:36.400Z,15.43
2023-02-22T15:09:53.342Z,12.43
2023-02-22T15:23:00.791Z,13.35
2023-02-22T15:25:39.369Z,12.57
2023-02-22T15:28:09.558Z,11.77
2023-02-22T15:30:37.823Z,10.90
2023-02-22T15:33:25.009Z,11.80
2023-02-22T15:35:57.230Z,11.85
2023-02-22T15:38:30.556Z,10.52
2023-02-22T15:41:08.501Z,11.52
2023-02-22T15:43:38.466Z,11.13
2023-02-22T15:46:06.882Z,10.60
2023-02-22T15:48:37.289Z,10.93
2023-02-22T15:51:12.812Z,10.45
2023-02-22T15:53:47.253Z,10.70
2023-02-22T15:56:24.189Z,11.15
2023-02-22T15:58:58.867Z,12.88
2023-02-22T16:01:27.266Z,12.70
2023-02-22T16:03:58.905Z,12.90
2023-02-22T16:06:41.997Z,14.90
2023-02-22T16:09:30.290Z,13.77
2023-02-22T16:12:21.155Z,13.55
2023-02-22T16:14:49.107Z,13.75
2023-02-22T16:17:28.860Z,15.10
2023-02-22T16:20:01.152Z,13.82
2023-02-22T16:22:36.207Z,13.70
2023-02-22T16:25:20.809Z,13.40
2023-02-22T16:27:52.780Z,12.48
2023-02-22T16:30:29.787Z,13.73
2023-02-22T16:32:57.960Z,14.13
2023-02-22T16:35:28.924Z,12.98
2023-02-22T16:38:06.825Z,15.27
2023-02-22T16:44:46.061Z,9.82
2023-02-22T16:47:22.077Z,10.45
2023-02-22T16:49:55.509Z,11.13
2023-02-22T16:52:22.838Z,12.27
2023-02-22T16:54:52.010Z,9.00
2023-02-22T16:57:22.732Z,9.25
2023-02-22T16:59:52.893Z,8.55
2023-02-22T17:06:37.274Z,7.22
2023-02-22T17:09:34.078Z,5.75
2023-02-22T17:12:05.256Z,6.32
2023-02-22T17:14:35.677Z,7.03
2023-02-22T17:17:40.459Z,6.57
2023-02-22T17:20:30.474Z,5.55
2023-02-22T17:22:59.608Z,6.55
2023-02-22T17:26:27.338Z,6.30
2023-02-22T17:29:10.557Z,7.47
2023-02-22T17:32:03.438Z,6.13
2023-02-22T17:35:27.124Z,6.78
2023-02-22T17:37:54.585Z,9.02
2023-02-22T17:40:24.336Z,10.45
2023-02-22T17:44:19.173Z,18.50
2023-02-22T17:46:46.636Z,31.77
2023-02-22T17:49:14.117Z,14.82
2023-02-22T17:51:41.562Z,7.13
2023-02-22T17:54:10.428Z,5.72
2023-02-22T17:56:39.402Z,5.40
2023-02-22T17:59:09.160Z,9.55
2023-02-22T18:01:36.904Z,7.03
2023-02-22T18:04:05.209Z,6.43
2023-02-22T18:06:33.025Z,7.35
2023-02-22T18:09:01.066Z,7.03
2023-02-22T18:11:32.772Z,6.38
2023-02-22T18:14:00.229Z,5.93
2023-02-22T18:16:27.818Z,6.35
2023-02-22T18:18:56.214Z,6.55
2023-02-22T18:21:26.800Z,6.15
2023-02-22T18:23:55.057Z,6.85
2023-02-22T18:26:24.531Z,6.40
2023-02-22T18:28:53.772Z,6.57
2023-02-22T18:31:22.901Z,6.45
2023-02-22T18:33:52.080Z,6.75
2023-02-22T18:36:23.314Z,6.22
2023-02-22T18:38:53.424Z,6.82
2023-02-22T18:41:26.813Z,7.65
2023-02-22T18:44:00.492Z,6.47
2023-02-22T18:46:29.978Z,7.25
2023-02-22T18:48:58.263Z,7.78
2023-02-22T19:02:07.984Z,6.07
2023-02-22T19:17:35.434Z,9.15
2023-02-22T19:20:56.544Z,8.38
2023-02-22T19:32:08.131Z,7.18
2023-02-22T19:42:42.377Z,9.85
2023-02-22T20:39:14.148Z,9.68
2023-02-22T20:58:41.747Z,8.15
2023-02-22T21:01:14.120Z,8.20
2023-02-22T21:03:44.993Z,8.45
2023-02-22T21:06:17.523Z,7.95
2023-02-22T21:08:50.497Z,9.95
2023-02-22T21:11:19.035Z,7.57
2023-02-22T21:13:48.832Z,7.50
2023-02-22T21:16:27.983Z,8.00
2023-02-22T21:18:58.820Z,10.45
2023-02-22T21:21:27.541Z,8.55
2023-02-22T21:23:57.185Z,8.60
2023-02-22T21:26:49.822Z,8.50
2023-02-22T21:29:19.759Z,8.27
2023-02-22T21:31:50.948Z,7.22
2023-02-22T21:34:18.562Z,8.07
2023-02-22T21:36:46.422Z,8.73
2023-02-22T21:39:28.553Z,8.88
2023-02-22T21:42:01.056Z,7.55
2023-02-22T21:44:28.849Z,7.82
2023-02-22T21:46:56.323Z,8.43
2023-02-22T21:49:23.770Z,7.90
2023-02-22T21:51:52.542Z,8.15
2023-02-22T21:54:20.223Z,7.38
2023-02-22T21:56:48.011Z,7.72
2023-02-22T21:59:20.975Z,7.93
2023-02-22T22:01:50.522Z,8.27
2023-02-22T22:04:21.511Z,7.90
2023-02-22T22:06:51.591Z,7.82
2023-02-22T22:09:20.566Z,10.35
2023-02-22T22:11:53.618Z,11.23
2023-02-22T22:14:25.426Z,11.02
2023-02-22T22:16:56.036Z,12.00
2023-02-22T22:19:23.665Z,11.52
2023-02-22T22:21:53.895Z,11.13
2023-02-22T22:24:22.741Z,11.23
2023-02-22T22:26:54.590Z,13.50
2023-02-22T22:29:28.590Z,11.63
2023-02-22T22:31:56.676Z,11.15
2023-02-22T22:34:24.401Z,10.95
2023-02-22T22:36:51.907Z,10.80
2023-02-22T22:39:20.978Z,11.48
2023-02-22T22:41:48.925Z,10.63
2023-02-22T22:44:22.178Z,13.85
2023-02-22T22:46:53.502Z,11.07
2023-02-22T22:49:23.560Z,11.10
2023-02-22T22:51:51.400Z,13.13
2023-02-22T22:54:18.762Z,11.63
2023-02-22T22:56:46.548Z,11.23
2023-02-22T22:59:13.999Z,11.70
2023-02-22T23:01:44.722Z,9.95
2023-02-22T23:04:16.475Z,12.30
2023-02-22T23:06:47.981Z,10.60
2023-02-22T23:09:19.041Z,9.80
2023-02-22T23:11:50.973Z,9.63
2023-02-22T23:14:21.980Z,10.32
2023-02-22T23:16:50.824Z,9.43
2023-02-22T23:19:21.738Z,9.80
2023-02-22T23:21:50.055Z,9.05
2023-02-22T23:24:19.995Z,9.23
2023-02-22T23:26:50.821Z,9.07
2023-02-22T23:29:20.613Z,10.68
2023-02-22T23:31:49.610Z,9.25
2023-02-22T23:34:21.194Z,10.05
2023-02-22T23:36:50.452Z,9.63
2023-02-22T23:39:22.080Z,11.38
2023-02-22T23:41:54.498Z,10.10
2023-02-22T23:44:22.494Z,11.52
2023-02-22T23:46:55.414Z,9.57
2023-02-22T23:49:26.404Z,10.50
2023-02-22T23:51:53.816Z,10.75
2023-02-22T23:54:24.521Z,10.15
2023-02-22T23:56:58.644Z,11.13
2023-02-22T23:59:27.009Z,9.85
